createdAt,value
2022-10-08T00:01:15.098Z,35.80
2022-10-08T00:03:44.493Z,34.50
2022-10-08T00:06:16.567Z,34.10
2022-10-08T00:08:52.004Z,34.30
2022-10-08T00:11:25.523Z,34.50
2022-10-08T00:13:53.939Z,33.20
2022-10-08T00:16:27.881Z,35.60
2022-10-08T00:18:59.156Z,33.70
2022-10-08T00:21:45.365Z,35.30
2022-10-08T00:24:17.260Z,35.90
2022-10-08T00:26:44.643Z,34.60
2022-10-08T00:29:16.323Z,32.90
2022-10-08T00:31:46.567Z,33.40
2022-10-08T00:34:19.450Z,32.10
2022-10-08T00:36:50.207Z,33.80
2022-10-08T00:39:20.387Z,32.60
2022-10-08T00:41:51.715Z,30.60
2022-10-08T00:44:43.018Z,31.50
2022-10-08T00:47:49.016Z,31.80
2022-10-08T00:50:18.556Z,31.60
2022-10-08T00:52:53.248Z,32.00
2022-10-08T00:55:22.588Z,30.30
2022-10-08T00:57:49.129Z,32.30
2022-10-08T01:00:20.455Z,29.30
2022-10-08T01:02:47.354Z,28.80
2022-10-08T01:05:17.146Z,29.10
2022-10-08T01:07:51.213Z,31.20
2022-10-08T01:10:56.529Z,30.00
2022-10-08T01:13:40.031Z,30.90
2022-10-08T01:16:24.062Z,29.70
2022-10-08T01:19:13.496Z,29.30
2022-10-08T01:22:06.084Z,30.50
2022-10-08T01:25:08.129Z,30.70
2022-10-08T01:27:42.328Z,33.30
2022-10-08T01:30:15.546Z,32.50
2022-10-08T01:32:51.086Z,32.40
2022-10-08T01:35:28.040Z,32.00
2022-10-08T01:37:55.533Z,34.20
2022-10-08T01:40:28.398Z,34.00
2022-10-08T01:42:55.513Z,34.00
2022-10-08T01:45:32.073Z,34.40
2022-10-08T01:48:02.874Z,33.30
2022-10-08T01:50:41.367Z,32.10
2022-10-08T01:53:13.166Z,33.10
2022-10-08T01:55:45.632Z,36.10
2022-10-08T01:58:19.023Z,38.50
2022-10-08T02:00:46.946Z,39.60
2022-10-08T02:03:13.458Z,43.00
2022-10-08T02:05:45.468Z,56.10
2022-10-08T02:08:11.909Z,43.90
2022-10-08T02:10:38.438Z,43.40
2022-10-08T02:13:04.908Z,44.40
2022-10-08T02:16:07.724Z,41.90
2022-10-08T02:18:46.076Z,40.30
2022-10-08T02:21:21.710Z,41.90
2022-10-08T02:23:56.081Z,41.50
2022-10-08T02:26:31.396Z,39.40
2022-10-08T02:29:03.526Z,38.30
2022-10-08T02:31:49.567Z,38.70
2022-10-08T02:34:24.969Z,38.70
2022-10-08T02:37:18.024Z,47.00
2022-10-08T02:39:50.755Z,79.00
2022-10-08T02:44:52.154Z,88.60
2022-10-08T02:47:22.087Z,85.50
2022-10-08T02:49:53.490Z,71.00
2022-10-08T02:52:20.893Z,81.10
2022-10-08T02:54:48.289Z,84.70
2022-10-08T02:57:27.994Z,84.80
2022-10-08T02:59:55.185Z,75.60
2022-10-08T03:02:55.314Z,70.90
2022-10-08T03:05:21.975Z,57.20
2022-10-08T03:07:50.503Z,51.30
2022-10-08T03:10:19.326Z,60.90
2022-10-08T03:12:46.507Z,57.90
2022-10-08T03:15:14.251Z,65.10
2022-10-08T03:17:45.823Z,67.00
2022-10-08T03:20:13.128Z,70.20
2022-10-08T03:22:39.997Z,69.70
2022-10-08T03:25:06.716Z,67.70
2022-10-08T03:27:34.580Z,75.90
2022-10-08T03:30:03.080Z,69.00
2022-10-08T03:32:29.536Z,63.40
2022-10-08T03:34:56.161Z,64.00
2022-10-08T03:37:22.577Z,65.70
2022-10-08T03:39:49.002Z,64.90
2022-10-08T03:42:15.436Z,64.40
2022-10-08T03:44:41.852Z,67.00
2022-10-08T03:47:08.231Z,67.00
2022-10-08T03:49:35.022Z,66.40
2022-10-08T03:52:01.345Z,68.30
2022-10-08T03:54:28.046Z,66.60
2022-10-08T03:56:54.461Z,65.20
2022-10-08T03:59:20.890Z,63.60
2022-10-08T04:01:47.335Z,65.40
2022-10-08T04:04:13.732Z,63.40
2022-10-08T04:06:40.177Z,60.00
2022-10-08T04:09:06.792Z,55.60
2022-10-08T04:11:33.266Z,56.10
2022-10-08T04:14:00.380Z,56.00
2022-10-08T04:16:26.905Z,54.90
2022-10-08T04:18:53.322Z,56.90
2022-10-08T04:21:20.013Z,49.00
2022-10-08T04:23:48.958Z,54.90
2022-10-08T04:26:15.718Z,52.00
2022-10-08T04:28:44.085Z,52.30
2022-10-08T04:31:16.012Z,54.10
2022-10-08T04:33:43.991Z,53.70
2022-10-08T04:36:16.843Z,48.60
2022-10-08T04:38:44.770Z,48.10
2022-10-08T04:41:15.642Z,49.30
2022-10-08T04:43:43.803Z,45.50
2022-10-08T04:46:13.689Z,44.30
2022-10-08T04:48:45.846Z,44.20
2022-10-08T04:51:12.379Z,45.50
2022-10-08T04:53:38.969Z,47.00
2022-10-08T04:56:15.009Z,43.30
2022-10-08T04:58:41.359Z,39.50
2022-10-08T05:01:10.638Z,41.60
2022-10-08T05:03:39.389Z,42.10
2022-10-08T05:06:06.539Z,41.80
2022-10-08T05:08:33.573Z,37.60
2022-10-08T05:11:00.045Z,44.10
2022-10-08T05:13:26.615Z,39.60
2022-10-08T05:15:53.489Z,31.10
2022-10-08T05:18:20.110Z,33.10
2022-10-08T05:20:46.594Z,36.60
2022-10-08T05:23:13.423Z,30.20
2022-10-08T05:25:40.124Z,34.30
2022-10-08T05:28:06.866Z,39.70
2022-10-08T05:30:33.635Z,33.60
2022-10-08T05:33:00.438Z,29.70
2022-10-08T05:35:26.964Z,28.10
2022-10-08T05:37:53.705Z,30.00
2022-10-08T05:40:20.360Z,29.90
2022-10-08T05:42:47.020Z,32.30
2022-10-08T05:45:13.826Z,32.10
2022-10-08T05:47:40.203Z,32.50
2022-10-08T05:50:07.543Z,31.80
2022-10-08T05:52:34.611Z,32.20
2022-10-08T05:55:01.650Z,30.70
2022-10-08T05:57:28.507Z,31.30
2022-10-08T05:59:55.099Z,32.50
2022-10-08T06:02:21.743Z,24.90
2022-10-08T06:04:49.514Z,29.30
2022-10-08T06:07:16.477Z,26.80
2022-10-08T06:09:44.448Z,24.20
2022-10-08T06:12:13.180Z,29.50
2022-10-08T06:14:40.221Z,32.50
2022-10-08T06:17:06.871Z,31.80
2022-10-08T06:19:36.412Z,35.90
2022-10-08T06:22:04.414Z,30.90
2022-10-08T06:24:36.817Z,28.50
2022-10-08T06:27:03.419Z,27.00
2022-10-08T06:29:30.319Z,26.70
2022-10-08T06:31:57.036Z,26.90
2022-10-08T06:34:23.955Z,27.30
2022-10-08T06:36:50.596Z,26.90
2022-10-08T06:39:17.809Z,27.10
2022-10-08T06:41:44.946Z,23.90
2022-10-08T06:44:15.219Z,21.50
2022-10-08T06:46:42.441Z,21.60
2022-10-08T06:49:09.836Z,20.90
2022-10-08T06:51:40.061Z,21.70
2022-10-08T06:54:10.558Z,20.70
2022-10-08T06:56:39.046Z,21.50
2022-10-08T06:59:07.443Z,20.60
2022-10-08T07:01:34.607Z,20.10
2022-10-08T07:04:02.052Z,19.40
2022-10-08T07:06:29.179Z,19.10
2022-10-08T07:08:59.603Z,21.00
2022-10-08T07:11:27.532Z,21.50
2022-10-08T07:13:55.554Z,18.90
2022-10-08T07:16:24.325Z,18.90
2022-10-08T07:18:55.441Z,19.10
2022-10-08T07:21:22.727Z,17.20
2022-10-08T07:23:50.415Z,16.00
2022-10-08T07:26:20.934Z,16.00
2022-10-08T07:28:55.108Z,16.20
2022-10-08T07:31:27.556Z,16.20
2022-10-08T07:36:22.898Z,14.40
2022-10-08T07:39:02.070Z,14.90
2022-10-08T07:41:31.978Z,15.80
2022-10-08T07:44:00.882Z,16.40
2022-10-08T07:46:34.516Z,15.50
2022-10-08T07:49:02.269Z,15.70
2022-10-08T07:51:31.145Z,16.00
2022-10-08T07:54:02.504Z,15.00
2022-10-08T07:56:31.751Z,15.40
2022-10-08T07:58:59.809Z,15.70
2022-10-08T08:01:29.264Z,15.50
2022-10-08T08:04:00.456Z,15.60
2022-10-08T08:06:28.069Z,14.20
2022-10-08T08:08:55.151Z,16.00
2022-10-08T08:11:24.162Z,14.60
2022-10-08T08:13:51.625Z,15.20
2022-10-08T08:16:22.274Z,14.40
2022-10-08T08:18:52.061Z,14.40
2022-10-08T08:21:28.529Z,16.60
2022-10-08T08:23:58.874Z,14.50
2022-10-08T08:26:32.283Z,14.90
2022-10-08T08:29:02.450Z,15.40
2022-10-08T08:31:35.547Z,15.40
2022-10-08T08:34:09.591Z,15.10
2022-10-08T08:36:42.536Z,14.20
2022-10-08T08:39:21.629Z,14.30
2022-10-08T08:42:13.162Z,13.60
2022-10-08T08:44:43.600Z,13.60
2022-10-08T08:47:37.137Z,15.30
2022-10-08T08:50:29.412Z,14.70
2022-10-08T08:52:59.289Z,14.70
2022-10-08T08:55:42.223Z,13.90
2022-10-08T08:58:43.021Z,13.30
2022-10-08T09:01:09.539Z,12.30
2022-10-08T09:03:43.301Z,12.40
2022-10-08T09:06:14.514Z,12.70
2022-10-08T09:08:54.731Z,11.80
2022-10-08T09:11:23.627Z,13.60
2022-10-08T09:14:07.433Z,12.60
2022-10-08T09:23:29.934Z,12.70
2022-10-08T09:26:12.129Z,12.10
2022-10-08T09:28:58.256Z,14.00
2022-10-08T09:31:48.842Z,12.00
2022-10-08T09:34:18.941Z,13.30
2022-10-08T09:36:49.182Z,12.40
2022-10-08T09:39:20.358Z,12.30
2022-10-08T09:42:07.433Z,12.10
2022-10-08T09:44:51.992Z,13.00
2022-10-08T09:47:23.050Z,10.90
2022-10-08T09:50:05.933Z,11.00
2022-10-08T09:59:25.867Z,11.00
2022-10-08T10:01:53.265Z,11.10
2022-10-08T10:04:34.289Z,10.90
2022-10-08T10:07:01.044Z,10.40
2022-10-08T10:09:45.306Z,10.00
2022-10-08T10:12:31.481Z,9.90
2022-10-08T10:15:04.285Z,10.00
2022-10-08T10:17:47.353Z,10.40
2022-10-08T10:20:41.034Z,9.80
2022-10-08T10:23:28.379Z,9.40
2022-10-08T10:26:42.322Z,9.70
2022-10-08T10:29:39.100Z,8.90
2022-10-08T10:32:28.550Z,9.50
2022-10-08T10:35:53.359Z,10.60
2022-10-08T10:39:22.658Z,9.20
2022-10-08T10:42:07.186Z,9.20
2022-10-08T10:45:13.185Z,8.90
2022-10-08T10:47:52.248Z,9.00
2022-10-08T10:50:58.918Z,9.30
2022-10-08T10:53:56.821Z,9.30
2022-10-08T10:56:25.514Z,9.30
2022-10-08T10:59:50.811Z,9.60
2022-10-08T11:02:58.397Z,9.70
2022-10-08T11:05:39.467Z,9.70
2022-10-08T11:08:42.336Z,9.80
2022-10-08T11:11:33.216Z,9.20
2022-10-08T11:14:43.381Z,8.80
2022-10-08T11:17:40.863Z,10.00
2022-10-08T11:20:42.252Z,9.10
2022-10-08T11:24:14.011Z,9.00
2022-10-08T11:27:29.232Z,9.20
2022-10-08T11:30:15.034Z,9.60
2022-10-08T11:32:53.147Z,9.90
2022-10-08T11:35:30.335Z,9.50
2022-10-08T11:38:39.164Z,9.50
2022-10-08T11:41:52.327Z,9.10
2022-10-08T11:44:29.764Z,9.00
2022-10-08T11:47:45.983Z,9.00
2022-10-08T11:50:37.597Z,8.20
2022-10-08T11:53:30.541Z,9.30
2022-10-08T11:56:20.689Z,8.90
2022-10-08T11:58:55.598Z,8.20
2022-10-08T12:01:24.153Z,7.70
2022-10-08T12:04:27.927Z,7.60
2022-10-08T12:07:15.905Z,6.60
2022-10-08T12:10:05.915Z,7.10
2022-10-08T12:12:49.168Z,6.50
2022-10-08T12:15:23.446Z,6.40
2022-10-08T12:17:54.565Z,6.00
2022-10-08T12:20:34.239Z,6.70
2022-10-08T12:23:09.395Z,6.30
2022-10-08T12:25:40.398Z,5.80
2022-10-08T12:28:20.917Z,5.50
2022-10-08T12:31:32.323Z,5.30
2022-10-08T12:34:19.685Z,4.80
2022-10-08T12:37:06.180Z,4.60
2022-10-08T12:39:37.425Z,4.80
2022-10-08T12:42:23.156Z,4.60
2022-10-08T12:45:26.715Z,4.70
2022-10-08T12:48:18.133Z,4.50
2022-10-08T12:51:15.599Z,4.60
2022-10-08T12:53:47.107Z,4.20
2022-10-08T12:56:29.252Z,4.30
2022-10-08T12:59:02.025Z,4.50
2022-10-08T13:01:30.383Z,4.70
2022-10-08T13:04:22.197Z,3.90
2022-10-08T13:06:55.296Z,4.00
2022-10-08T13:09:35.396Z,3.60
2022-10-08T13:12:12.077Z,3.20
2022-10-08T13:14:41.177Z,3.50
2022-10-08T13:17:30.763Z,3.50
2022-10-08T13:20:11.403Z,3.70
2022-10-08T13:22:39.282Z,3.90
2022-10-08T13:25:53.603Z,3.90
2022-10-08T13:28:36.408Z,4.30
2022-10-08T13:31:26.635Z,4.00
2022-10-08T13:33:54.909Z,3.70
2022-10-08T13:36:25.079Z,3.80
2022-10-08T13:38:53.112Z,3.70
2022-10-08T13:41:23.989Z,4.70
2022-10-08T13:43:52.528Z,4.10
2022-10-08T13:46:20.924Z,4.70
2022-10-08T13:48:49.076Z,4.20
2022-10-08T13:51:17.536Z,4.20
2022-10-08T13:53:45.868Z,3.50
2022-10-08T13:56:14.016Z,3.20
2022-10-08T13:58:42.362Z,3.50
2022-10-08T14:01:10.726Z,4.80
2022-10-08T14:03:40.294Z,3.40
2022-10-08T14:06:08.514Z,3.50
2022-10-08T14:08:37.330Z,3.20
2022-10-08T14:11:05.894Z,3.10
2022-10-08T14:13:34.039Z,3.70
2022-10-08T14:16:02.245Z,3.40
2022-10-08T14:18:30.559Z,3.50
2022-10-08T14:20:58.479Z,3.30
2022-10-08T14:23:26.296Z,3.20
2022-10-08T14:25:54.219Z,3.10
2022-10-08T14:28:22.085Z,3.80
2022-10-08T14:30:50.009Z,3.60
2022-10-08T14:33:17.869Z,3.70
2022-10-08T14:35:45.934Z,2.90
2022-10-08T14:38:13.753Z,3.90
2022-10-08T14:40:41.827Z,3.90
2022-10-08T14:43:09.720Z,3.40
2022-10-08T14:45:37.737Z,3.30
2022-10-08T14:48:05.854Z,3.10
2022-10-08T14:50:33.656Z,3.70
2022-10-08T14:53:01.585Z,3.00
2022-10-08T14:55:29.453Z,3.70
2022-10-08T14:57:57.379Z,3.20
2022-10-08T15:00:25.342Z,3.30
2022-10-08T15:02:53.391Z,3.60
2022-10-08T15:05:21.558Z,2.80
2022-10-08T15:07:49.556Z,3.30
2022-10-08T15:10:18.095Z,3.50
2022-10-08T15:12:46.705Z,3.00
2022-10-08T15:15:15.399Z,3.20
2022-10-08T15:17:43.544Z,3.30
2022-10-08T15:20:11.635Z,3.30
2022-10-08T15:22:39.804Z,3.10
2022-10-08T15:25:09.416Z,3.10
2022-10-08T15:27:37.515Z,3.00
2022-10-08T15:30:06.305Z,4.50
2022-10-08T15:32:34.525Z,3.10
2022-10-08T15:35:02.507Z,3.80
2022-10-08T15:37:30.333Z,3.20
2022-10-08T15:39:58.355Z,3.00
2022-10-08T15:42:26.486Z,3.10
2022-10-08T15:44:55.315Z,3.10
2022-10-08T15:47:23.727Z,3.20
2022-10-08T15:49:52.084Z,2.60
2022-10-08T15:52:21.856Z,3.10
2022-10-08T15:54:49.728Z,3.60
2022-10-08T15:57:19.028Z,2.90
2022-10-08T15:59:49.566Z,2.80
2022-10-08T16:02:18.770Z,3.00
2022-10-08T16:04:48.093Z,3.40
2022-10-08T16:07:17.386Z,3.40
2022-10-08T16:09:46.255Z,2.80
2022-10-08T16:12:14.785Z,3.40
2022-10-08T16:14:44.223Z,3.30
2022-10-08T16:17:13.437Z,3.20
2022-10-08T16:19:42.282Z,2.30
2022-10-08T16:22:12.586Z,2.60
2022-10-08T16:24:40.934Z,2.60
2022-10-08T16:27:09.482Z,3.00
2022-10-08T16:29:38.529Z,3.00
2022-10-08T16:32:10.903Z,2.40
2022-10-08T16:34:41.842Z,2.30
2022-10-08T16:37:13.600Z,4.00
2022-10-08T16:41:28.165Z,2.40
2022-10-08T16:44:12.269Z,2.50
2022-10-08T16:46:51.339Z,3.10
2022-10-08T16:49:27.155Z,2.60
2022-10-08T16:52:01.839Z,2.50
2022-10-08T16:54:36.236Z,2.50
2022-10-08T16:57:05.069Z,3.20
2022-10-08T16:59:33.122Z,2.50
2022-10-08T17:02:03.583Z,2.80
2022-10-08T17:04:39.055Z,2.70
2022-10-08T17:07:07.791Z,2.80
2022-10-08T17:09:36.440Z,2.60
2022-10-08T17:12:07.967Z,3.00
2022-10-08T17:14:38.128Z,3.20
2022-10-08T17:17:06.653Z,3.50
2022-10-08T17:19:34.989Z,3.20
2022-10-08T17:22:02.962Z,2.80
2022-10-08T17:24:31.436Z,2.90
2022-10-08T17:26:59.934Z,3.40
2022-10-08T17:29:28.603Z,3.40
2022-10-08T17:31:58.937Z,3.40
2022-10-08T17:34:28.332Z,3.20
2022-10-08T17:37:08.312Z,3.70
2022-10-08T17:39:37.081Z,4.60
2022-10-08T17:42:07.326Z,3.70
2022-10-08T17:44:37.718Z,3.30
2022-10-08T17:47:11.770Z,3.40
2022-10-08T17:49:41.863Z,4.30
2022-10-08T17:52:23.974Z,4.60
2022-10-08T17:54:52.755Z,5.60
2022-10-08T17:57:21.277Z,6.10
2022-10-08T17:59:49.457Z,6.60
2022-10-08T18:02:17.905Z,7.10
2022-10-08T18:04:46.679Z,5.70
2022-10-08T18:07:15.572Z,4.40
2022-10-08T18:09:43.925Z,4.90
2022-10-08T18:12:15.176Z,4.80
2022-10-08T18:14:43.632Z,4.80
2022-10-08T18:17:12.368Z,4.70
2022-10-08T18:19:40.702Z,4.70
2022-10-08T18:22:09.266Z,5.30
2022-10-08T18:24:37.578Z,5.60
2022-10-08T18:27:05.974Z,5.60
2022-10-08T18:29:34.755Z,6.40
2022-10-08T18:32:03.132Z,6.10
2022-10-08T18:34:34.950Z,5.90
2022-10-08T18:37:04.001Z,6.30
2022-10-08T18:39:32.375Z,6.30
2022-10-08T18:42:00.639Z,6.50
2022-10-08T18:44:28.711Z,6.60
2022-10-08T18:47:00.675Z,6.80
2022-10-08T18:49:33.864Z,6.50
2022-10-08T18:52:02.048Z,6.60
2022-10-08T18:54:30.427Z,6.40
2022-10-08T18:57:01.889Z,6.20
2022-10-08T18:59:36.869Z,7.10
2022-10-08T19:02:05.055Z,5.50
2022-10-08T19:04:33.126Z,5.40
2022-10-08T19:07:01.300Z,5.00
2022-10-08T19:09:29.413Z,5.80
2022-10-08T19:11:58.154Z,5.60
2022-10-08T19:14:28.992Z,5.70
2022-10-08T19:16:57.267Z,5.80
2022-10-08T19:19:28.868Z,5.70
2022-10-08T19:22:00.960Z,5.50
2022-10-08T19:24:30.068Z,5.60
2022-10-08T19:26:59.984Z,5.80
2022-10-08T19:29:36.276Z,6.60
2022-10-08T19:32:09.645Z,5.20
2022-10-08T19:34:41.098Z,5.00
2022-10-08T19:37:20.739Z,5.10
2022-10-08T19:40:08.854Z,5.70
2022-10-08T19:42:46.364Z,6.30
2022-10-08T19:45:19.182Z,6.00
2022-10-08T19:47:54.001Z,5.40
2022-10-08T19:50:37.340Z,6.20
2022-10-08T19:53:07.750Z,5.80
2022-10-08T19:55:45.655Z,6.20
2022-10-08T19:58:26.514Z,6.10
2022-10-08T20:01:27.929Z,6.30
2022-10-08T20:04:14.090Z,7.70
2022-10-08T20:09:23.117Z,7.50
2022-10-08T20:14:39.603Z,7.50
2022-10-08T20:19:42.093Z,7.70
2022-10-08T20:22:12.007Z,7.60
2022-10-08T20:24:40.413Z,6.70
2022-10-08T20:27:09.086Z,7.60
2022-10-08T20:29:38.721Z,7.10
2022-10-08T20:32:07.570Z,8.70
2022-10-08T20:34:39.171Z,9.20
2022-10-08T20:37:07.715Z,10.20
2022-10-08T20:39:51.914Z,9.50
2022-10-08T20:42:24.167Z,8.80
2022-10-08T20:44:52.147Z,8.40
2022-10-08T20:47:24.195Z,8.50
2022-10-08T20:52:25.307Z,7.70
2022-10-08T20:54:55.640Z,7.30
2022-10-08T20:57:27.820Z,7.40
2022-10-08T20:59:57.165Z,6.30
2022-10-08T21:02:26.805Z,6.60
2022-10-08T21:04:54.713Z,6.00
2022-10-08T21:07:22.628Z,5.80
2022-10-08T21:09:52.973Z,5.80
2022-10-08T21:12:21.537Z,5.60
2022-10-08T21:15:07.286Z,5.40
2022-10-08T21:17:36.105Z,4.50
2022-10-08T21:20:04.751Z,5.10
2022-10-08T21:22:36.663Z,4.90
2022-10-08T21:25:05.822Z,4.80
2022-10-08T21:27:34.115Z,4.70
2022-10-08T21:30:04.451Z,4.20
2022-10-08T21:32:35.211Z,4.40
2022-10-08T21:35:06.283Z,4.00
2022-10-08T21:37:34.475Z,4.40
2022-10-08T21:40:03.628Z,4.20
2022-10-08T21:42:31.944Z,4.60
2022-10-08T21:45:00.226Z,4.70
2022-10-08T21:47:29.115Z,5.70
2022-10-08T21:49:57.301Z,3.90
2022-10-08T21:52:25.522Z,4.20
2022-10-08T21:54:54.069Z,4.30
2022-10-08T21:57:22.645Z,4.30
2022-10-08T21:59:50.883Z,4.10
2022-10-08T22:02:19.452Z,4.60
2022-10-08T22:04:48.759Z,4.30
2022-10-08T22:07:16.760Z,4.20
2022-10-08T22:09:45.499Z,3.90
2022-10-08T22:12:16.167Z,4.00
2022-10-08T22:14:46.459Z,4.30
2022-10-08T22:17:15.924Z,4.30
2022-10-08T22:19:46.297Z,4.40
2022-10-08T22:22:15.466Z,4.00
2022-10-08T22:24:44.733Z,4.10
2022-10-08T22:27:14.703Z,4.10
2022-10-08T22:29:46.157Z,3.90
2022-10-08T22:32:17.365Z,4.80
2022-10-08T22:34:45.945Z,4.40
2022-10-08T22:37:14.367Z,4.20
2022-10-08T22:39:42.446Z,3.60
2022-10-08T22:42:10.877Z,3.40
2022-10-08T22:44:39.470Z,3.30
2022-10-08T22:47:09.043Z,3.00
2022-10-08T22:49:37.380Z,3.40
2022-10-08T22:52:05.293Z,3.60
2022-10-08T22:54:33.573Z,3.50
2022-10-08T22:57:01.645Z,3.80
2022-10-08T22:59:30.676Z,3.30
2022-10-08T23:02:00.514Z,3.60
2022-10-08T23:04:28.853Z,3.70
2022-10-08T23:06:57.058Z,3.10
2022-10-08T23:09:26.885Z,3.10
2022-10-08T23:11:55.395Z,3.60
2022-10-08T23:14:23.478Z,2.60
2022-10-08T23:16:51.784Z,3.20
2022-10-08T23:19:20.208Z,3.30
2022-10-08T23:21:48.221Z,3.00
2022-10-08T23:24:16.271Z,2.70
2022-10-08T23:26:44.229Z,2.80
2022-10-08T23:29:12.811Z,3.20
2022-10-08T23:31:41.132Z,3.10
2022-10-08T23:34:09.799Z,2.90
2022-10-08T23:36:41.951Z,3.10
2022-10-08T23:39:16.438Z,2.80
2022-10-08T23:41:44.657Z,2.90
2022-10-08T23:44:13.646Z,2.80
2022-10-08T23:46:41.835Z,3.50
2022-10-08T23:49:12.803Z,3.90
2022-10-08T23:51:41.241Z,3.10
2022-10-08T23:54:09.330Z,3.50
2022-10-08T23:56:37.383Z,3.30
2022-10-08T23:59:05.484Z,3.30
